Time,TemperatureF,DewpointF,PressureIn,WindDirection,WindDirectionDegrees,WindSpeedMPH,WindSpeedGustMPH,Humidity,HourlyPrecipIn,Conditions,Clouds,dailyrainin,SoftwareType,DateUTC
2013-02-28 00:00:00,36.1,22.4,30.03,SW,219,4.9,14.3,57,-99.99,,,0.00,VWS V14.01,2013-02-28 05:00:00,
2013-02-28 00:30:00,35.4,21.7,30.03,SW,234,7.8,10.1,57,-99.99,,,0.00,VWS V14.01,2013-02-28 05:30:00,
2013-02-28 01:00:00,35.6,22.3,30.00,SSW,209,4.9,10.5,58,-99.99,,,0.00,VWS V14.01,2013-02-28 06:00:00,
2013-02-28 01:30:00,35.2,21.5,30.00,SSW,204,8.7,16.8,57,-99.99,,,0.00,VWS V14.01,2013-02-28 06:30:00,
2013-02-28 02:00:00,34.3,19.4,30.00,WSW,239,10.1,16.3,54,-99.99,,,0.00,VWS V14.01,2013-02-28 07:00:00,
2013-02-28 02:30:00,33.6,18.8,30.00,SSW,193,6.3,14.8,54,-99.99,,,0.00,VWS V14.01,2013-02-28 07:30:00,
2013-02-28 03:00:00,32.9,17.7,30.00,SSW,213,4.5,12.1,53,-99.99,,,0.00,VWS V14.01,2013-02-28 08:00:00,
2013-02-28 03:30:00,32.9,17.7,30.00,SSW,192,4.5,10.5,53,-99.99,,,0.00,VWS V14.01,2013-02-28 08:30:00,
2013-02-28 04:00:00,33.1,17.8,30.00,SW,219,5.8,11.2,53,-99.99,,,0.00,VWS V14.01,2013-02-28 09:00:00,
2013-02-28 04:30:00,33.1,17.8,30.00,SW,215,0.0,7.8,53,-99.99,,,0.00,VWS V14.01,2013-02-28 09:30:00,
2013-02-28 05:00:00,33.1,18.3,30.00,SW,217,4.0,6.3,54,-99.99,,,0.00,VWS V14.01,2013-02-28 10:00:00,
2013-02-28 05:30:00,32.9,18.9,30.00,SW,223,3.6,9.6,56,-99.99,,,0.00,VWS V14.01,2013-02-28 10:30:00,
2013-02-28 06:00:00,32.9,19.8,30.00,SSW,195,5.8,7.8,58,-99.99,,,0.00,VWS V14.01,2013-02-28 11:00:00,
2013-02-28 06:30:00,32.7,20.4,30.00,SW,215,4.9,8.7,60,-99.99,,,0.00,VWS V14.01,2013-02-28 11:30:00,
2013-02-28 07:00:00,32.7,21.1,30.00,SSW,206,0.0,9.6,62,-99.99,,,0.00,VWS V14.01,2013-02-28 12:00:00,
2013-02-28 07:30:00,32.7,21.5,30.00,SSW,213,4.9,10.5,63,-99.99,,,0.00,VWS V14.01,2013-02-28 12:30:00,
2013-02-28 08:00:00,32.4,22.6,30.00,WSW,237,0.0,12.1,67,-99.99,,,0.00,VWS V14.01,2013-02-28 13:00:00,
2013-02-28 08:30:00,32.2,24.2,30.03,SW,214,4.5,11.2,72,-99.99,,,0.00,VWS V14.01,2013-02-28 13:30:00,
2013-02-28 09:00:00,32.7,23.7,30.03,SSW,201,5.8,13.4,69,-99.99,,,0.00,VWS V14.01,2013-02-28 14:00:00,
2013-02-28 09:30:00,32.9,21.7,30.06,South,178,5.8,13.4,63,-99.99,,,0.00,VWS V14.01,2013-02-28 14:30:00,
2013-02-28 10:00:00,32.9,21.7,30.06,SW,224,6.3,13.9,63,-99.99,,,0.00,VWS V14.01,2013-02-28 15:00:00,
2013-02-28 10:30:00,32.5,21.0,30.06,SSW,213,6.3,13.9,62,-99.99,,,0.00,VWS V14.01,2013-02-28 15:30:00,
2013-02-28 11:00:00,30.9,22.0,30.06,SSW,201,4.0,13.4,69,-99.99,,,0.00,VWS V14.01,2013-02-28 16:00:00,
2013-02-28 11:30:00,30.9,21.6,30.06,SSW,210,4.9,12.1,68,-99.99,,,0.00,VWS V14.01,2013-02-28 16:30:00,
2013-02-28 12:00:00,31.6,21.2,30.09,SSW,207,4.5,10.1,65,-99.99,,,0.00,VWS V14.01,2013-02-28 17:00:00,
2013-02-28 12:30:00,32.5,20.6,30.06,SW,234,4.5,11.0,61,-99.99,,,0.00,VWS V14.01,2013-02-28 17:30:00,
2013-02-28 13:00:00,32.5,19.0,30.09,SSW,208,4.5,10.1,57,-99.99,,,0.00,VWS V14.01,2013-02-28 18:00:00,
2013-02-28 13:30:00,32.2,17.4,30.09,South,190,6.7,11.6,54,-99.99,,,0.00,VWS V14.01,2013-02-28 18:30:00,
2013-02-28 14:00:00,31.8,17.9,30.09,SSW,209,5.4,11.0,56,-99.99,,,0.00,VWS V14.01,2013-02-28 19:00:00,
2013-02-28 14:30:00,32.0,17.7,30.09,SSW,200,6.3,11.2,55,-99.99,,,0.00,VWS V14.01,2013-02-28 19:30:00,
2013-02-28 15:00:00,32.0,17.2,30.09,SW,220,3.1,10.1,54,-99.99,,,0.00,VWS V14.01,2013-02-28 20:00:00,
2013-02-28 15:30:00,32.4,18.0,30.09,SW,232,2.7,8.7,55,-99.99,,,0.00,VWS V14.01,2013-02-28 20:30:00,
2013-02-28 16:00:00,32.4,18.0,30.12,SW,226,3.1,8.3,55,-99.99,,,0.00,VWS V14.01,2013-02-28 21:00:00,
2013-02-28 16:30:00,32.4,18.0,30.12,SSW,212,2.7,9.2,55,-99.99,,,0.00,VWS V14.01,2013-02-28 21:30:00,
2013-02-28 17:00:00,32.2,17.8,30.12,SW,214,3.1,7.4,55,-99.99,,,0.00,VWS V14.01,2013-02-28 22:00:00,
2013-02-28 17:30:00,32.0,17.7,30.12,SSW,211,0.0,9.2,55,-99.99,,,0.00,VWS V14.01,2013-02-28 22:30:00,
2013-02-28 18:00:00,32.2,17.8,30.12,SW,218,5.4,6.3,55,-99.99,,,0.00,VWS V14.01,2013-02-28 23:00:00,
2013-02-28 18:30:00,32.0,18.1,30.12,SW,220,3.1,5.4,56,-99.99,,,0.00,VWS V14.01,2013-02-28 23:30:00,
2013-02-28 19:00:00,32.0,18.5,30.15,SW,226,4.0,6.3,57,-99.99,,,0.00,VWS V14.01,2013-03-01 00:00:00,
2013-02-28 19:30:00,32.2,18.3,30.15,WSW,240,0.0,4.5,56,-99.99,,,0.00,VWS V14.01,2013-03-01 00:30:00,
2013-02-28 20:00:00,32.2,18.7,30.15,SW,229,0.0,3.1,57,-99.99,,,0.00,VWS V14.01,2013-03-01 01:00:00,
2013-02-28 20:30:00,31.6,18.2,30.15,WSW,246,0.0,5.8,57,-99.99,,,0.00,VWS V14.01,2013-03-01 01:30:00,
2013-02-28 21:00:00,31.5,17.6,30.15,SW,228,3.1,5.8,56,-99.99,,,0.00,VWS V14.01,2013-03-01 02:00:00,
2013-02-28 21:30:00,31.3,17.4,30.15,SSW,212,3.6,6.7,56,-99.99,,,0.00,VWS V14.01,2013-03-01 02:30:00,
2013-02-28 22:00:00,31.1,17.2,30.15,SW,217,4.5,6.9,56,-99.99,,,0.00,VWS V14.01,2013-03-01 03:00:00,
2013-02-28 22:30:00,31.1,17.7,30.15,SW,225,4.0,9.2,57,-99.99,,,0.00,VWS V14.01,2013-03-01 03:30:00,
2013-02-28 23:00:00,30.9,17.5,30.12,SW,219,3.6,7.8,57,-99.99,,,0.00,VWS V14.01,2013-03-01 04:00:00,
2013-02-28 23:30:00,31.1,18.1,30.15,SW,232,4.0,6.7,58,-99.99,,,0.00,VWS V14.01,2013-03-01 04:30:00,